sensor_id;sensor_type;location;lat;lon;timestamp;P1;durP1;ratioP1;P2;durP2;ratioP2
64353;SDS011;50681;53.334;-6.536;2023-12-20T00:00:48;9.73;;;2.77;;
64353;SDS011;50681;53.334;-6.536;2023-12-20T00:03:13;25.33;;;4.43;;
64353;SDS011;50681;53.334;-6.536;2023-12-20T00:05:39;27.03;;;4.27;;
64353;SDS011;50681;53.334;-6.536;2023-12-20T00:08:06;23.10;;;4.10;;
64353;SDS011;50681;53.334;-6.536;2023-12-20T00:10:31;20.00;;;4.13;;
64353;SDS011;50681;53.334;-6.536;2023-12-20T00:12:59;19.07;;;3.83;;
64353;SDS011;50681;53.334;-6.536;2023-12-20T00:15:24;18.55;;;3.22;;
64353;SDS011;50681;53.334;-6.536;2023-12-20T00:17:51;25.60;;;3.20;;
64353;SDS011;50681;53.334;-6.536;2023-12-20T00:20:16;24.60;;;3.70;;
64353;SDS011;50681;53.334;-6.536;2023-12-20T00:22:42;29.50;;;4.73;;
64353;SDS011;50681;53.334;-6.536;2023-12-20T00:25:07;22.98;;;3.67;;
64353;SDS011;50681;53.334;-6.536;2023-12-20T00:27:34;22.17;;;4.07;;
64353;SDS011;50681;53.334;-6.536;2023-12-20T00:29:59;26.33;;;4.22;;
64353;SDS011;50681;53.334;-6.536;2023-12-20T00:32:26;26.17;;;4.00;;
64353;SDS011;50681;53.334;-6.536;2023-12-20T00:34:51;21.60;;;3.60;;
64353;SDS011;50681;53.334;-6.536;2023-12-20T00:37:17;32.57;;;5.53;;
64353;SDS011;50681;53.334;-6.536;2023-12-20T00:39:42;22.50;;;4.13;;
64353;SDS011;50681;53.334;-6.536;2023-12-20T00:42:08;24.20;;;4.43;;
64353;SDS011;50681;53.334;-6.536;2023-12-20T00:44:33;16.67;;;2.73;;
64353;SDS011;50681;53.334;-6.536;2023-12-20T00:46:59;38.20;;;3.95;;
64353;SDS011;50681;53.334;-6.536;2023-12-20T00:49:26;25.63;;;4.20;;
64353;SDS011;50681;53.334;-6.536;2023-12-20T00:51:51;22.73;;;4.30;;
64353;SDS011;50681;53.334;-6.536;2023-12-20T00:54:17;33.08;;;4.35;;
64353;SDS011;50681;53.334;-6.536;2023-12-20T00:56:43;27.80;;;3.85;;
64353;SDS011;50681;53.334;-6.536;2023-12-20T00:59:09;29.40;;;3.57;;
64353;SDS011;50681;53.334;-6.536;2023-12-20T01:01:34;21.90;;;3.50;;
64353;SDS011;50681;53.334;-6.536;2023-12-20T01:03:59;29.20;;;3.47;;
64353;SDS011;50681;53.334;-6.536;2023-12-20T01:06:25;21.37;;;3.30;;
64353;SDS011;50681;53.334;-6.536;2023-12-20T01:08:50;12.07;;;2.10;;
64353;SDS011;50681;53.334;-6.536;2023-12-20T01:11:16;19.50;;;2.83;;
64353;SDS011;50681;53.334;-6.536;2023-12-20T01:13:41;22.50;;;5.07;;
64353;SDS011;50681;53.334;-6.536;2023-12-20T01:16:08;17.83;;;3.27;;
64353;SDS011;50681;53.334;-6.536;2023-12-20T01:18:35;18.60;;;3.38;;
64353;SDS011;50681;53.334;-6.536;2023-12-20T01:21:01;20.47;;;3.17;;
64353;SDS011;50681;53.334;-6.536;2023-12-20T01:23:28;12.85;;;3.13;;
64353;SDS011;50681;53.334;-6.536;2023-12-20T01:25:53;23.17;;;3.40;;
64353;SDS011;50681;53.334;-6.536;2023-12-20T01:28:22;17.67;;;3.00;;
64353;SDS011;50681;53.334;-6.536;2023-12-20T01:30:47;20.58;;;3.17;;
64353;SDS011;50681;53.334;-6.536;2023-12-20T01:33:13;21.73;;;2.40;;
64353;SDS011;50681;53.334;-6.536;2023-12-20T01:35:39;10.33;;;2.03;;
64353;SDS011;50681;53.334;-6.536;2023-12-20T01:38:04;13.57;;;3.08;;
64353;SDS011;50681;53.334;-6.536;2023-12-20T01:40:30;24.37;;;3.07;;
64353;SDS011;50681;53.334;-6.536;2023-12-20T01:43:07;17.33;;;2.77;;
64353;SDS011;50681;53.334;-6.536;2023-12-20T01:45:33;13.07;;;2.55;;
64353;SDS011;50681;53.334;-6.536;2023-12-20T01:48:03;12.82;;;2.40;;
64353;SDS011;50681;53.334;-6.536;2023-12-20T01:50:30;10.80;;;2.22;;
64353;SDS011;50681;53.334;-6.536;2023-12-20T01:55:24;16.50;;;2.72;;
64353;SDS011;50681;53.334;-6.536;2023-12-20T02:00:16;14.93;;;2.38;;
64353;SDS011;50681;53.334;-6.536;2023-12-20T02:02:43;29.90;;;2.75;;
64353;SDS011;50681;53.334;-6.536;2023-12-20T02:05:10;11.75;;;1.92;;
64353;SDS011;50681;53.334;-6.536;2023-12-20T02:07:36;18.98;;;3.42;;
64353;SDS011;50681;53.334;-6.536;2023-12-20T02:10:02;15.07;;;2.67;;
64353;SDS011;50681;53.334;-6.536;2023-12-20T02:12:29;12.23;;;2.35;;
64353;SDS011;50681;53.334;-6.536;2023-12-20T02:14:54;18.43;;;2.33;;
64353;SDS011;50681;53.334;-6.536;2023-12-20T02:17:20;13.73;;;2.70;;
64353;SDS011;50681;53.334;-6.536;2023-12-20T02:19:45;11.03;;;1.93;;
64353;SDS011;50681;53.334;-6.536;2023-12-20T02:22:11;16.17;;;2.35;;
64353;SDS011;50681;53.334;-6.536;2023-12-20T02:24:37;18.27;;;3.23;;
64353;SDS011;50681;53.334;-6.536;2023-12-20T02:27:04;16.85;;;2.72;;
64353;SDS011;50681;53.334;-6.536;2023-12-20T02:29:31;13.45;;;2.42;;
64353;SDS011;50681;53.334;-6.536;2023-12-20T02:31:57;10.88;;;1.80;;
64353;SDS011;50681;53.334;-6.536;2023-12-20T02:34:23;10.10;;;2.00;;
64353;SDS011;50681;53.334;-6.536;2023-12-20T02:36:49;15.13;;;1.87;;
64353;SDS011;50681;53.334;-6.536;2023-12-20T02:41:40;12.27;;;2.40;;
64353;SDS011;50681;53.334;-6.536;2023-12-20T02:44:06;14.23;;;2.17;;
64353;SDS011;50681;53.334;-6.536;2023-12-20T02:46:31;11.47;;;1.97;;
64353;SDS011;50681;53.334;-6.536;2023-12-20T02:48:56;19.00;;;2.07;;
64353;SDS011;50681;53.334;-6.536;2023-12-20T02:51:22;13.13;;;2.30;;
64353;SDS011;50681;53.334;-6.536;2023-12-20T02:53:47;13.27;;;2.27;;
64353;SDS011;50681;53.334;-6.536;2023-12-20T02:56:13;12.50;;;2.00;;
64353;SDS011;50681;53.334;-6.536;2023-12-20T02:58:40;6.55;;;1.48;;
64353;SDS011;50681;53.334;-6.536;2023-12-20T03:01:06;13.43;;;2.17;;
64353;SDS011;50681;53.334;-6.536;2023-12-20T03:03:31;14.57;;;1.93;;
64353;SDS011;50681;53.334;-6.536;2023-12-20T03:05:57;14.43;;;2.22;;
64353;SDS011;50681;53.334;-6.536;2023-12-20T03:08:23;10.18;;;1.73;;
64353;SDS011;50681;53.334;-6.536;2023-12-20T03:10:48;19.20;;;2.30;;
64353;SDS011;50681;53.334;-6.536;2023-12-20T03:13:14;14.27;;;2.10;;
64353;SDS011;50681;53.334;-6.536;2023-12-20T03:15:39;10.83;;;1.80;;
64353;SDS011;50681;53.334;-6.536;2023-12-20T03:18:05;10.23;;;2.30;;
64353;SDS011;50681;53.334;-6.536;2023-12-20T03:20:30;16.53;;;2.03;;
64353;SDS011;50681;53.334;-6.536;2023-12-20T03:23:01;12.73;;;2.95;;
64353;SDS011;50681;53.334;-6.536;2023-12-20T03:25:27;18.75;;;3.53;;
64353;SDS011;50681;53.334;-6.536;2023-12-20T03:27:53;19.33;;;2.00;;
64353;SDS011;50681;53.334;-6.536;2023-12-20T03:30:18;16.60;;;2.57;;
64353;SDS011;50681;53.334;-6.536;2023-12-20T03:32:44;15.25;;;2.38;;
64353;SDS011;50681;53.334;-6.536;2023-12-20T03:35:10;20.83;;;3.38;;
64353;SDS011;50681;53.334;-6.536;2023-12-20T03:37:36;7.03;;;1.83;;
64353;SDS011;50681;53.334;-6.536;2023-12-20T03:40:01;13.60;;;2.30;;
64353;SDS011;50681;53.334;-6.536;2023-12-20T03:42:27;9.25;;;2.08;;
64353;SDS011;50681;53.334;-6.536;2023-12-20T03:44:53;9.97;;;1.83;;
64353;SDS011;50681;53.334;-6.536;2023-12-20T03:47:18;11.30;;;2.07;;
64353;SDS011;50681;53.334;-6.536;2023-12-20T03:49:44;8.07;;;2.27;;
64353;SDS011;50681;53.334;-6.536;2023-12-20T03:52:09;25.37;;;2.50;;
64353;SDS011;50681;53.334;-6.536;2023-12-20T03:54:35;4.60;;;1.33;;
64353;SDS011;50681;53.334;-6.536;2023-12-20T03:57:00;11.70;;;1.43;;
64353;SDS011;50681;53.334;-6.536;2023-12-20T03:59:26;12.37;;;2.30;;
64353;SDS011;50681;53.334;-6.536;2023-12-20T04:01:51;15.57;;;2.73;;
64353;SDS011;50681;53.334;-6.536;2023-12-20T04:04:16;12.97;;;2.23;;
64353;SDS011;50681;53.334;-6.536;2023-12-20T04:06:42;11.40;;;1.90;;
64353;SDS011;50681;53.334;-6.536;2023-12-20T04:09:08;13.38;;;2.28;;
64353;SDS011;50681;53.334;-6.536;2023-12-20T04:11:37;15.23;;;2.50;;
64353;SDS011;50681;53.334;-6.536;2023-12-20T04:14:02;11.93;;;2.43;;
64353;SDS011;50681;53.334;-6.536;2023-12-20T04:16:30;14.55;;;1.83;;
64353;SDS011;50681;53.334;-6.536;2023-12-20T04:18:55;5.53;;;1.58;;
64353;SDS011;50681;53.334;-6.536;2023-12-20T04:21:21;15.80;;;1.70;;
64353;SDS011;50681;53.334;-6.536;2023-12-20T04:23:46;11.33;;;1.90;;
64353;SDS011;50681;53.334;-6.536;2023-12-20T04:26:11;10.83;;;1.67;;
64353;SDS011;50681;53.334;-6.536;2023-12-20T04:28:37;7.53;;;1.73;;
64353;SDS011;50681;53.334;-6.536;2023-12-20T04:31:02;13.57;;;2.43;;
64353;SDS011;50681;53.334;-6.536;2023-12-20T04:33:28;16.83;;;2.73;;
64353;SDS011;50681;53.334;-6.536;2023-12-20T04:35:53;12.57;;;2.07;;
64353;SDS011;50681;53.334;-6.536;2023-12-20T04:38:19;21.23;;;3.13;;
64353;SDS011;50681;53.334;-6.536;2023-12-20T04:40:44;9.83;;;1.53;;
64353;SDS011;50681;53.334;-6.536;2023-12-20T04:43:10;15.77;;;2.17;;
64353;SDS011;50681;53.334;-6.536;2023-12-20T04:45:35;17.43;;;2.70;;
64353;SDS011;50681;53.334;-6.536;2023-12-20T04:48:01;9.85;;;2.10;;
64353;SDS011;50681;53.334;-6.536;2023-12-20T04:50:27;10.43;;;1.98;;
64353;SDS011;50681;53.334;-6.536;2023-12-20T04:52:52;13.20;;;2.07;;
64353;SDS011;50681;53.334;-6.536;2023-12-20T04:55:18;9.47;;;2.13;;
64353;SDS011;50681;53.334;-6.536;2023-12-20T04:57:43;11.63;;;1.90;;
64353;SDS011;50681;53.334;-6.536;2023-12-20T05:00:09;19.50;;;2.50;;
64353;SDS011;50681;53.334;-6.536;2023-12-20T05:02:35;6.22;;;1.48;;
64353;SDS011;50681;53.334;-6.536;2023-12-20T05:05:01;8.95;;;1.95;;
64353;SDS011;50681;53.334;-6.536;2023-12-20T05:07:27;8.57;;;1.60;;
64353;SDS011;50681;53.334;-6.536;2023-12-20T05:09:52;19.37;;;2.37;;
64353;SDS011;50681;53.334;-6.536;2023-12-20T05:12:18;7.05;;;1.35;;
64353;SDS011;50681;53.334;-6.536;2023-12-20T05:14:44;18.42;;;3.30;;
64353;SDS011;50681;53.334;-6.536;2023-12-20T05:17:09;10.03;;;1.27;;
64353;SDS011;50681;53.334;-6.536;2023-12-20T05:19:35;9.43;;;1.43;;
64353;SDS011;50681;53.334;-6.536;2023-12-20T05:22:03;10.97;;;1.80;;
64353;SDS011;50681;53.334;-6.536;2023-12-20T05:24:29;10.35;;;1.63;;
64353;SDS011;50681;53.334;-6.536;2023-12-20T05:26:54;5.80;;;1.13;;
64353;SDS011;50681;53.334;-6.536;2023-12-20T05:29:20;14.27;;;1.90;;
64353;SDS011;50681;53.334;-6.536;2023-12-20T05:31:45;6.57;;;1.83;;
64353;SDS011;50681;53.334;-6.536;2023-12-20T05:34:11;14.38;;;2.03;;
64353;SDS011;50681;53.334;-6.536;2023-12-20T05:36:36;12.37;;;2.43;;
64353;SDS011;50681;53.334;-6.536;2023-12-20T05:39:02;2.40;;;1.08;;
64353;SDS011;50681;53.334;-6.536;2023-12-20T05:41:32;9.38;;;1.60;;
64353;SDS011;50681;53.334;-6.536;2023-12-20T05:43:58;9.18;;;1.80;;
64353;SDS011;50681;53.334;-6.536;2023-12-20T05:46:24;15.20;;;2.55;;
64353;SDS011;50681;53.334;-6.536;2023-12-20T05:48:50;9.25;;;1.60;;
64353;SDS011;50681;53.334;-6.536;2023-12-20T05:51:16;12.35;;;1.70;;
64353;SDS011;50681;53.334;-6.536;2023-12-20T05:53:43;12.50;;;1.98;;
64353;SDS011;50681;53.334;-6.536;2023-12-20T05:56:09;22.30;;;2.63;;
64353;SDS011;50681;53.334;-6.536;2023-12-20T05:58:35;20.40;;;2.55;;
64353;SDS011;50681;53.334;-6.536;2023-12-20T06:01:00;10.70;;;1.30;;
64353;SDS011;50681;53.334;-6.536;2023-12-20T06:03:26;15.07;;;2.67;;
64353;SDS011;50681;53.334;-6.536;2023-12-20T06:05:51;25.33;;;2.60;;
64353;SDS011;50681;53.334;-6.536;2023-12-20T06:08:18;18.83;;;2.47;;
64353;SDS011;50681;53.334;-6.536;2023-12-20T06:10:44;15.90;;;2.42;;
64353;SDS011;50681;53.334;-6.536;2023-12-20T06:13:09;13.17;;;2.10;;
64353;SDS011;50681;53.334;-6.536;2023-12-20T06:15:35;15.10;;;1.77;;
64353;SDS011;50681;53.334;-6.536;2023-12-20T06:18:00;18.57;;;2.10;;
64353;SDS011;50681;53.334;-6.536;2023-12-20T06:20:26;15.30;;;2.20;;
64353;SDS011;50681;53.334;-6.536;2023-12-20T06:22:51;12.27;;;2.30;;
64353;SDS011;50681;53.334;-6.536;2023-12-20T06:25:17;11.70;;;1.87;;
64353;SDS011;50681;53.334;-6.536;2023-12-20T06:27:43;22.20;;;2.63;;
64353;SDS011;50681;53.334;-6.536;2023-12-20T06:30:09;19.70;;;2.42;;
64353;SDS011;50681;53.334;-6.536;2023-12-20T06:32:34;26.70;;;3.00;;
64353;SDS011;50681;53.334;-6.536;2023-12-20T06:35:00;20.15;;;2.80;;
64353;SDS011;50681;53.334;-6.536;2023-12-20T06:37:26;12.65;;;2.58;;
64353;SDS011;50681;53.334;-6.536;2023-12-20T06:39:51;11.63;;;2.30;;
64353;SDS011;50681;53.334;-6.536;2023-12-20T06:42:18;14.33;;;2.37;;
64353;SDS011;50681;53.334;-6.536;2023-12-20T06:47:09;11.15;;;2.42;;
64353;SDS011;50681;53.334;-6.536;2023-12-20T06:49:34;8.73;;;1.53;;
64353;SDS011;50681;53.334;-6.536;2023-12-20T06:51:59;11.90;;;2.40;;
64353;SDS011;50681;53.334;-6.536;2023-12-20T06:54:25;10.37;;;1.77;;
64353;SDS011;50681;53.334;-6.536;2023-12-20T06:56:50;8.17;;;1.80;;
64353;SDS011;50681;53.334;-6.536;2023-12-20T06:59:16;9.07;;;1.53;;
64353;SDS011;50681;53.334;-6.536;2023-12-20T07:01:41;11.40;;;2.00;;
64353;SDS011;50681;53.334;-6.536;2023-12-20T07:04:07;5.57;;;1.33;;
64353;SDS011;50681;53.334;-6.536;2023-12-20T07:06:32;14.73;;;2.13;;
64353;SDS011;50681;53.334;-6.536;2023-12-20T07:08:57;11.57;;;1.87;;
64353;SDS011;50681;53.334;-6.536;2023-12-20T07:11:25;7.30;;;2.03;;
64353;SDS011;50681;53.334;-6.536;2023-12-20T07:13:51;9.15;;;2.13;;
64353;SDS011;50681;53.334;-6.536;2023-12-20T07:16:16;13.60;;;3.57;;
64353;SDS011;50681;53.334;-6.536;2023-12-20T07:18:42;12.43;;;1.20;;
64353;SDS011;50681;53.334;-6.536;2023-12-20T07:21:07;11.73;;;2.07;;
64353;SDS011;50681;53.334;-6.536;2023-12-20T07:23:33;14.53;;;1.90;;
64353;SDS011;50681;53.334;-6.536;2023-12-20T07:25:58;10.05;;;1.83;;
64353;SDS011;50681;53.334;-6.536;2023-12-20T07:28:24;12.77;;;2.80;;
64353;SDS011;50681;53.334;-6.536;2023-12-20T07:30:50;15.88;;;2.28;;
64353;SDS011;50681;53.334;-6.536;2023-12-20T07:33:15;13.73;;;2.20;;
64353;SDS011;50681;53.334;-6.536;2023-12-20T07:35:41;15.80;;;2.10;;
64353;SDS011;50681;53.334;-6.536;2023-12-20T07:38:06;23.10;;;2.70;;
64353;SDS011;50681;53.334;-6.536;2023-12-20T07:40:32;14.77;;;2.40;;
64353;SDS011;50681;53.334;-6.536;2023-12-20T07:42:59;27.77;;;3.33;;
64353;SDS011;50681;53.334;-6.536;2023-12-20T07:45:25;11.38;;;2.78;;
64353;SDS011;50681;53.334;-6.536;2023-12-20T07:48:00;12.40;;;1.90;;
64353;SDS011;50681;53.334;-6.536;2023-12-20T07:50:25;21.55;;;2.70;;
64353;SDS011;50681;53.334;-6.536;2023-12-20T07:52:51;25.30;;;2.88;;
64353;SDS011;50681;53.334;-6.536;2023-12-20T07:55:16;22.13;;;3.13;;
64353;SDS011;50681;53.334;-6.536;2023-12-20T07:57:42;26.87;;;3.33;;
64353;SDS011;50681;53.334;-6.536;2023-12-20T08:00:08;21.58;;;3.22;;
64353;SDS011;50681;53.334;-6.536;2023-12-20T08:02:34;20.23;;;4.72;;
64353;SDS011;50681;53.334;-6.536;2023-12-20T08:05:00;20.40;;;3.30;;
64353;SDS011;50681;53.334;-6.536;2023-12-20T08:07:25;20.67;;;3.20;;
64353;SDS011;50681;53.334;-6.536;2023-12-20T08:09:51;20.27;;;2.73;;
64353;SDS011;50681;53.334;-6.536;2023-12-20T08:12:16;19.30;;;2.60;;
64353;SDS011;50681;53.334;-6.536;2023-12-20T08:14:42;27.13;;;3.27;;
64353;SDS011;50681;53.334;-6.536;2023-12-20T08:17:07;18.60;;;2.07;;
64353;SDS011;50681;53.334;-6.536;2023-12-20T08:19:33;19.07;;;4.40;;
64353;SDS011;50681;53.334;-6.536;2023-12-20T08:21:58;19.37;;;3.10;;
64353;SDS011;50681;53.334;-6.536;2023-12-20T08:24:23;22.63;;;3.20;;
64353;SDS011;50681;53.334;-6.536;2023-12-20T08:26:49;25.73;;;3.63;;
64353;SDS011;50681;53.334;-6.536;2023-12-20T08:29:14;25.70;;;4.53;;
64353;SDS011;50681;53.334;-6.536;2023-12-20T08:31:40;22.63;;;2.83;;
64353;SDS011;50681;53.334;-6.536;2023-12-20T08:34:05;21.47;;;4.07;;
64353;SDS011;50681;53.334;-6.536;2023-12-20T08:36:30;21.70;;;3.90;;
64353;SDS011;50681;53.334;-6.536;2023-12-20T08:38:56;18.63;;;2.97;;
64353;SDS011;50681;53.334;-6.536;2023-12-20T08:41:21;20.83;;;3.13;;
64353;SDS011;50681;53.334;-6.536;2023-12-20T08:43:47;18.10;;;2.43;;
64353;SDS011;50681;53.334;-6.536;2023-12-20T08:46:13;19.33;;;3.67;;
64353;SDS011;50681;53.334;-6.536;2023-12-20T08:48:39;17.13;;;3.30;;
64353;SDS011;50681;53.334;-6.536;2023-12-20T08:51:05;24.70;;;3.83;;
64353;SDS011;50681;53.334;-6.536;2023-12-20T08:53:33;23.67;;;4.07;;
64353;SDS011;50681;53.334;-6.536;2023-12-20T08:55:59;17.13;;;4.13;;
64353;SDS011;50681;53.334;-6.536;2023-12-20T08:58:31;25.33;;;3.80;;
64353;SDS011;50681;53.334;-6.536;2023-12-20T09:00:58;26.25;;;3.63;;
64353;SDS011;50681;53.334;-6.536;2023-12-20T09:03:23;19.30;;;3.60;;
64353;SDS011;50681;53.334;-6.536;2023-12-20T09:05:49;17.80;;;2.43;;
64353;SDS011;50681;53.334;-6.536;2023-12-20T09:08:14;26.87;;;3.80;;
64353;SDS011;50681;53.334;-6.536;2023-12-20T09:10:40;21.42;;;4.05;;
64353;SDS011;50681;53.334;-6.536;2023-12-20T09:13:07;26.20;;;3.10;;
64353;SDS011;50681;53.334;-6.536;2023-12-20T09:18:03;17.80;;;2.97;;
64353;SDS011;50681;53.334;-6.536;2023-12-20T09:20:29;33.08;;;4.93;;
64353;SDS011;50681;53.334;-6.536;2023-12-20T09:22:54;26.30;;;4.10;;
64353;SDS011;50681;53.334;-6.536;2023-12-20T09:25:19;28.27;;;4.33;;
64353;SDS011;50681;53.334;-6.536;2023-12-20T09:27:45;18.10;;;3.63;;
64353;SDS011;50681;53.334;-6.536;2023-12-20T09:30:11;29.17;;;4.03;;
64353;SDS011;50681;53.334;-6.536;2023-12-20T09:32:37;17.55;;;3.70;;
64353;SDS011;50681;53.334;-6.536;2023-12-20T09:35:03;19.17;;;2.77;;
64353;SDS011;50681;53.334;-6.536;2023-12-20T09:37:30;36.70;;;4.45;;
64353;SDS011;50681;53.334;-6.536;2023-12-20T09:39:56;23.77;;;4.90;;
64353;SDS011;50681;53.334;-6.536;2023-12-20T09:42:25;26.60;;;4.07;;
64353;SDS011;50681;53.334;-6.536;2023-12-20T09:45:06;12.35;;;4.30;;
64353;SDS011;50681;53.334;-6.536;2023-12-20T09:47:34;23.35;;;5.60;;
64353;SDS011;50681;53.334;-6.536;2023-12-20T09:50:00;33.17;;;3.67;;
64353;SDS011;50681;53.334;-6.536;2023-12-20T09:52:27;15.52;;;4.00;;
64353;SDS011;50681;53.334;-6.536;2023-12-20T09:54:53;20.00;;;3.75;;
64353;SDS011;50681;53.334;-6.536;2023-12-20T09:57:20;24.92;;;4.15;;
64353;SDS011;50681;53.334;-6.536;2023-12-20T09:59:45;27.33;;;5.50;;
64353;SDS011;50681;53.334;-6.536;2023-12-20T10:02:12;36.93;;;5.00;;
64353;SDS011;50681;53.334;-6.536;2023-12-20T10:04:46;34.15;;;4.93;;
64353;SDS011;50681;53.334;-6.536;2023-12-20T10:07:15;21.80;;;3.42;;
64353;SDS011;50681;53.334;-6.536;2023-12-20T10:09:40;23.52;;;4.07;;
64353;SDS011;50681;53.334;-6.536;2023-12-20T10:12:07;23.13;;;4.07;;
64353;SDS011;50681;53.334;-6.536;2023-12-20T10:14:32;19.10;;;3.87;;
64353;SDS011;50681;53.334;-6.536;2023-12-20T10:17:04;51.60;;;6.65;;
64353;SDS011;50681;53.334;-6.536;2023-12-20T10:19:31;30.73;;;4.80;;
64353;SDS011;50681;53.334;-6.536;2023-12-20T10:24:45;27.75;;;4.18;;
64353;SDS011;50681;53.334;-6.536;2023-12-20T10:27:11;36.20;;;4.88;;
64353;SDS011;50681;53.334;-6.536;2023-12-20T10:29:37;39.27;;;5.60;;
64353;SDS011;50681;53.334;-6.536;2023-12-20T10:34:51;34.58;;;5.32;;
64353;SDS011;50681;53.334;-6.536;2023-12-20T10:39:43;36.65;;;5.80;;
64353;SDS011;50681;53.334;-6.536;2023-12-20T10:42:12;38.70;;;6.72;;
64353;SDS011;50681;53.334;-6.536;2023-12-20T10:44:39;29.40;;;4.93;;
64353;SDS011;50681;53.334;-6.536;2023-12-20T10:47:05;18.23;;;4.00;;
64353;SDS011;50681;53.334;-6.536;2023-12-20T10:49:31;42.20;;;6.25;;
64353;SDS011;50681;53.334;-6.536;2023-12-20T10:52:03;28.90;;;6.68;;
64353;SDS011;50681;53.334;-6.536;2023-12-20T10:54:30;43.75;;;6.85;;
64353;SDS011;50681;53.334;-6.536;2023-12-20T10:56:58;28.95;;;4.53;;
64353;SDS011;50681;53.334;-6.536;2023-12-20T10:59:25;48.42;;;6.53;;
64353;SDS011;50681;53.334;-6.536;2023-12-20T11:01:54;37.13;;;5.97;;
64353;SDS011;50681;53.334;-6.536;2023-12-20T11:04:23;38.33;;;5.18;;
64353;SDS011;50681;53.334;-6.536;2023-12-20T11:06:58;31.73;;;5.32;;
64353;SDS011;50681;53.334;-6.536;2023-12-20T11:09:41;29.00;;;5.40;;
64353;SDS011;50681;53.334;-6.536;2023-12-20T11:12:16;38.92;;;5.68;;
64353;SDS011;50681;53.334;-6.536;2023-12-20T11:14:58;39.70;;;5.80;;
64353;SDS011;50681;53.334;-6.536;2023-12-20T11:17:31;34.50;;;5.50;;
64353;SDS011;50681;53.334;-6.536;2023-12-20T11:20:24;41.55;;;6.13;;
64353;SDS011;50681;53.334;-6.536;2023-12-20T11:23:08;33.47;;;5.43;;
64353;SDS011;50681;53.334;-6.536;2023-12-20T11:25:47;52.42;;;9.32;;
64353;SDS011;50681;53.334;-6.536;2023-12-20T11:28:14;42.13;;;6.60;;
64353;SDS011;50681;53.334;-6.536;2023-12-20T11:33:15;48.65;;;9.60;;
64353;SDS011;50681;53.334;-6.536;2023-12-20T11:35:50;39.63;;;6.63;;
64353;SDS011;50681;53.334;-6.536;2023-12-20T11:38:16;56.55;;;10.35;;
64353;SDS011;50681;53.334;-6.536;2023-12-20T11:40:42;41.05;;;6.38;;
64353;SDS011;50681;53.334;-6.536;2023-12-20T11:45:34;34.10;;;5.25;;
64353;SDS011;50681;53.334;-6.536;2023-12-20T11:48:00;41.25;;;5.50;;
64353;SDS011;50681;53.334;-6.536;2023-12-20T11:50:27;47.85;;;7.60;;
64353;SDS011;50681;53.334;-6.536;2023-12-20T11:52:53;44.47;;;5.53;;
64353;SDS011;50681;53.334;-6.536;2023-12-20T11:55:20;31.65;;;5.45;;
64353;SDS011;50681;53.334;-6.536;2023-12-20T11:57:46;34.67;;;6.00;;
64353;SDS011;50681;53.334;-6.536;2023-12-20T12:00:15;37.67;;;6.70;;
64353;SDS011;50681;53.334;-6.536;2023-12-20T12:02:41;34.13;;;5.72;;
64353;SDS011;50681;53.334;-6.536;2023-12-20T12:05:07;39.83;;;6.17;;
64353;SDS011;50681;53.334;-6.536;2023-12-20T12:07:33;50.35;;;7.15;;
64353;SDS011;50681;53.334;-6.536;2023-12-20T12:10:15;42.35;;;7.93;;
64353;SDS011;50681;53.334;-6.536;2023-12-20T12:12:48;32.13;;;5.22;;
64353;SDS011;50681;53.334;-6.536;2023-12-20T12:15:14;44.50;;;8.05;;
64353;SDS011;50681;53.334;-6.536;2023-12-20T12:17:39;29.30;;;5.25;;
64353;SDS011;50681;53.334;-6.536;2023-12-20T12:20:05;35.63;;;6.70;;
64353;SDS011;50681;53.334;-6.536;2023-12-20T12:22:36;49.20;;;7.43;;
64353;SDS011;50681;53.334;-6.536;2023-12-20T12:25:11;51.70;;;9.50;;
64353;SDS011;50681;53.334;-6.536;2023-12-20T12:27:41;26.42;;;6.78;;
64353;SDS011;50681;53.334;-6.536;2023-12-20T12:30:07;35.17;;;6.60;;
64353;SDS011;50681;53.334;-6.536;2023-12-20T12:32:35;46.55;;;7.85;;
64353;SDS011;50681;53.334;-6.536;2023-12-20T12:35:02;45.75;;;8.00;;
64353;SDS011;50681;53.334;-6.536;2023-12-20T12:37:31;36.17;;;6.05;;
64353;SDS011;50681;53.334;-6.536;2023-12-20T12:39:59;48.55;;;9.32;;
64353;SDS011;50681;53.334;-6.536;2023-12-20T12:42:24;28.17;;;5.03;;
64353;SDS011;50681;53.334;-6.536;2023-12-20T12:44:53;42.35;;;8.57;;
64353;SDS011;50681;53.334;-6.536;2023-12-20T12:47:19;58.85;;;8.15;;
64353;SDS011;50681;53.334;-6.536;2023-12-20T12:49:45;35.47;;;7.67;;
64353;SDS011;50681;53.334;-6.536;2023-12-20T12:52:10;50.60;;;7.70;;
64353;SDS011;50681;53.334;-6.536;2023-12-20T12:54:35;35.93;;;5.90;;
64353;SDS011;50681;53.334;-6.536;2023-12-20T12:57:01;37.50;;;4.43;;
64353;SDS011;50681;53.334;-6.536;2023-12-20T12:59:27;29.57;;;4.47;;
64353;SDS011;50681;53.334;-6.536;2023-12-20T13:01:52;60.27;;;6.87;;
64353;SDS011;50681;53.334;-6.536;2023-12-20T13:04:18;33.15;;;4.55;;
64353;SDS011;50681;53.334;-6.536;2023-12-20T13:06:43;34.60;;;6.27;;
64353;SDS011;50681;53.334;-6.536;2023-12-20T13:09:09;39.50;;;6.83;;
64353;SDS011;50681;53.334;-6.536;2023-12-20T13:11:37;52.38;;;7.45;;
64353;SDS011;50681;53.334;-6.536;2023-12-20T13:14:02;40.83;;;7.83;;
64353;SDS011;50681;53.334;-6.536;2023-12-20T13:16:28;40.83;;;6.40;;
64353;SDS011;50681;53.334;-6.536;2023-12-20T13:18:54;30.90;;;5.47;;
64353;SDS011;50681;53.334;-6.536;2023-12-20T13:21:19;28.10;;;4.80;;
64353;SDS011;50681;53.334;-6.536;2023-12-20T13:23:45;35.78;;;5.47;;
64353;SDS011;50681;53.334;-6.536;2023-12-20T13:26:11;30.30;;;5.63;;
64353;SDS011;50681;53.334;-6.536;2023-12-20T13:28:36;38.87;;;5.13;;
64353;SDS011;50681;53.334;-6.536;2023-12-20T13:31:02;25.80;;;4.73;;
64353;SDS011;50681;53.334;-6.536;2023-12-20T13:33:27;46.53;;;7.40;;
64353;SDS011;50681;53.334;-6.536;2023-12-20T13:35:53;32.57;;;4.93;;
64353;SDS011;50681;53.334;-6.536;2023-12-20T13:38:18;30.50;;;4.33;;
64353;SDS011;50681;53.334;-6.536;2023-12-20T13:40:44;32.27;;;6.33;;
64353;SDS011;50681;53.334;-6.536;2023-12-20T13:43:09;26.07;;;4.67;;
64353;SDS011;50681;53.334;-6.536;2023-12-20T13:45:37;28.95;;;4.35;;
64353;SDS011;50681;53.334;-6.536;2023-12-20T13:48:03;44.17;;;7.10;;
64353;SDS011;50681;53.334;-6.536;2023-12-20T13:50:29;84.22;;;9.15;;
64353;SDS011;50681;53.334;-6.536;2023-12-20T13:52:55;47.58;;;7.85;;
64353;SDS011;50681;53.334;-6.536;2023-12-20T13:55:20;46.93;;;6.63;;
64353;SDS011;50681;53.334;-6.536;2023-12-20T13:57:50;30.45;;;5.35;;
64353;SDS011;50681;53.334;-6.536;2023-12-20T14:00:15;57.63;;;6.40;;
64353;SDS011;50681;53.334;-6.536;2023-12-20T14:02:41;38.75;;;6.63;;
64353;SDS011;50681;53.334;-6.536;2023-12-20T14:05:07;28.08;;;4.25;;
64353;SDS011;50681;53.334;-6.536;2023-12-20T14:07:35;22.20;;;4.20;;
64353;SDS011;50681;53.334;-6.536;2023-12-20T14:10:01;34.42;;;5.05;;
64353;SDS011;50681;53.334;-6.536;2023-12-20T14:12:27;30.67;;;5.35;;
64353;SDS011;50681;53.334;-6.536;2023-12-20T14:14:52;38.13;;;5.53;;
64353;SDS011;50681;53.334;-6.536;2023-12-20T14:17:20;27.88;;;3.72;;
64353;SDS011;50681;53.334;-6.536;2023-12-20T14:19:46;37.40;;;5.43;;
64353;SDS011;50681;53.334;-6.536;2023-12-20T14:22:11;16.07;;;3.40;;
64353;SDS011;50681;53.334;-6.536;2023-12-20T14:24:41;18.77;;;4.53;;
64353;SDS011;50681;53.334;-6.536;2023-12-20T14:27:07;26.53;;;4.23;;
64353;SDS011;50681;53.334;-6.536;2023-12-20T14:29:34;27.40;;;4.53;;
64353;SDS011;50681;53.334;-6.536;2023-12-20T14:32:00;14.00;;;2.92;;
64353;SDS011;50681;53.334;-6.536;2023-12-20T14:34:27;28.27;;;4.22;;
64353;SDS011;50681;53.334;-6.536;2023-12-20T14:36:53;24.43;;;4.40;;
64353;SDS011;50681;53.334;-6.536;2023-12-20T14:39:18;31.17;;;4.47;;
64353;SDS011;50681;53.334;-6.536;2023-12-20T14:41:44;18.87;;;3.37;;
64353;SDS011;50681;53.334;-6.536;2023-12-20T14:44:10;12.70;;;2.80;;